createdAt,value
2023-04-11T00:03:08.918Z,6.08
2023-04-11T00:08:00.816Z,6.03
2023-04-11T00:12:56.805Z,6.01
2023-04-11T00:17:49.149Z,5.98
2023-04-11T00:22:44.528Z,5.95
2023-04-11T00:27:37.513Z,5.95
2023-04-11T00:32:29.303Z,5.94
2023-04-11T00:37:23.693Z,5.94
2023-04-11T00:42:15.341Z,5.91
2023-04-11T00:47:07.594Z,5.93
2023-04-11T00:52:00.003Z,5.92
2023-04-11T00:56:52.400Z,5.90
2023-04-11T01:01:44.244Z,5.87
2023-04-11T01:06:36.728Z,5.87
2023-04-11T01:11:28.369Z,5.82
2023-04-11T01:16:21.680Z,5.80
2023-04-11T01:21:13.587Z,5.79
2023-04-11T01:26:05.672Z,5.70
2023-04-11T01:30:58.026Z,5.68
2023-04-11T01:35:49.800Z,5.65
2023-04-11T01:40:42.160Z,5.61
2023-04-11T01:45:33.982Z,5.63
2023-04-11T01:50:25.885Z,5.65
2023-04-11T01:55:18.212Z,5.64
2023-04-11T02:00:13.976Z,5.61
2023-04-11T02:05:05.837Z,5.59
2023-04-11T02:09:58.001Z,5.54
2023-04-11T02:14:50.145Z,5.54
2023-04-11T02:19:41.860Z,5.52
2023-04-11T02:24:33.594Z,5.50
2023-04-11T02:29:25.532Z,5.43
2023-04-11T02:34:17.130Z,5.45
2023-04-11T02:39:08.823Z,5.44
2023-04-11T02:44:00.541Z,5.42
2023-04-11T02:48:52.193Z,5.37
2023-04-11T02:53:43.865Z,5.35
2023-04-11T02:58:39.053Z,5.34
2023-04-11T03:03:30.850Z,5.29
2023-04-11T03:08:23.059Z,5.24
2023-04-11T03:13:14.751Z,5.20
2023-04-11T03:18:06.374Z,5.13
2023-04-11T03:22:58.104Z,5.10
2023-04-11T03:27:49.753Z,5.03
2023-04-11T03:32:41.497Z,5.00
2023-04-11T03:37:33.088Z,4.95
2023-04-11T03:42:24.833Z,4.94
2023-04-11T03:47:16.451Z,4.91
2023-04-11T03:52:09.926Z,4.89
2023-04-11T03:57:01.860Z,4.86
2023-04-11T04:01:53.611Z,4.81
2023-04-11T04:06:46.051Z,4.80
2023-04-11T04:11:37.718Z,4.81
2023-04-11T04:16:29.354Z,4.75
2023-04-11T04:21:21.099Z,4.73
2023-04-11T04:26:25.128Z,4.70
2023-04-11T04:31:22.439Z,4.70
2023-04-11T04:36:14.092Z,4.68
2023-04-11T04:41:08.592Z,4.66
2023-04-11T04:46:00.480Z,4.59
2023-04-11T04:50:52.168Z,4.57
2023-04-11T04:55:43.877Z,4.50
2023-04-11T05:00:35.462Z,4.48
2023-04-11T05:05:27.182Z,4.44
2023-04-11T05:10:18.952Z,4.39
2023-04-11T05:15:11.956Z,4.38
2023-04-11T05:20:06.424Z,4.32
2023-04-11T05:24:58.166Z,4.30
2023-04-11T05:29:49.825Z,4.30
2023-04-11T05:34:58.781Z,4.30
2023-04-11T05:39:52.676Z,4.30
2023-04-11T05:44:44.937Z,4.33
2023-04-11T05:49:36.867Z,4.37
2023-04-11T05:54:33.948Z,4.39
2023-04-11T05:59:27.686Z,4.42
2023-04-11T06:04:20.954Z,4.53
2023-04-11T06:09:13.646Z,5.00
2023-04-11T06:14:05.407Z,5.52
2023-04-11T06:18:56.968Z,6.01
2023-04-11T06:23:48.602Z,6.58
2023-04-11T06:28:40.287Z,7.12
2023-04-11T06:33:32.026Z,7.66
2023-04-11T06:38:23.648Z,8.19
2023-04-11T06:43:15.261Z,8.73
2023-04-11T06:48:07.074Z,9.19
2023-04-11T06:52:58.981Z,9.65
2023-04-11T06:57:50.754Z,10.18
2023-04-11T07:02:42.693Z,10.73
2023-04-11T07:07:34.543Z,11.25
2023-04-11T07:12:26.261Z,11.70
2023-04-11T07:17:19.141Z,12.15
2023-04-11T07:22:11.442Z,12.40
2023-04-11T07:27:03.175Z,12.60
2023-04-11T07:31:57.047Z,12.90
2023-04-11T07:36:50.127Z,13.31
2023-04-11T07:41:41.927Z,13.61
2023-04-11T07:46:34.471Z,13.85
2023-04-11T07:51:27.752Z,14.36
2023-04-11T07:56:19.382Z,14.85
2023-04-11T08:01:25.510Z,15.24
2023-04-11T08:06:17.137Z,15.64
2023-04-11T08:11:09.050Z,16.17
2023-04-11T08:16:01.217Z,16.59
2023-04-11T08:20:53.012Z,16.73
2023-04-11T08:25:44.692Z,16.69
2023-04-11T08:30:36.843Z,16.77
2023-04-11T08:35:28.552Z,16.85
2023-04-11T08:40:20.299Z,17.13
2023-04-11T08:45:12.274Z,17.34
2023-04-11T08:50:05.792Z,17.63
2023-04-11T08:54:57.579Z,17.72
2023-04-11T08:59:51.437Z,17.93
2023-04-11T09:04:43.963Z,18.08
2023-04-11T09:09:37.026Z,18.17
2023-04-11T09:14:29.269Z,18.50
2023-04-11T09:19:29.010Z,18.73
2023-04-11T09:24:20.942Z,17.79
2023-04-11T09:29:34.985Z,17.07
2023-04-11T09:34:29.244Z,16.09
2023-04-11T09:39:20.915Z,15.36
2023-04-11T09:44:14.382Z,15.16
2023-04-11T09:49:06.221Z,15.53
2023-04-11T09:53:59.483Z,16.05
2023-04-11T09:58:52.077Z,16.35
2023-04-11T10:03:44.091Z,16.04
2023-04-11T10:08:37.425Z,15.36
2023-04-11T10:13:46.132Z,15.07
2023-04-11T10:18:38.976Z,15.16
2023-04-11T10:23:30.706Z,15.12
2023-04-11T10:28:38.254Z,14.95
2023-04-11T10:33:31.194Z,14.57
2023-04-11T10:38:41.354Z,13.96
2023-04-11T10:43:33.278Z,13.74
2023-04-11T10:48:24.926Z,13.86
2023-04-11T10:53:37.385Z,14.27
2023-04-11T10:58:39.787Z,14.40
2023-04-11T11:03:34.327Z,14.14
2023-04-11T11:08:30.735Z,14.03
2023-04-11T11:13:22.539Z,14.01
2023-04-11T11:18:16.432Z,13.99
2023-04-11T11:23:10.859Z,14.00
2023-04-11T11:28:07.883Z,14.04
2023-04-11T11:32:59.656Z,14.05
2023-04-11T11:37:54.460Z,14.20
2023-04-11T11:42:46.701Z,14.10
2023-04-11T11:47:44.279Z,13.91
2023-04-11T11:52:37.872Z,13.76
2023-04-11T11:57:30.106Z,13.71
2023-04-11T12:02:24.331Z,13.89
2023-04-11T12:07:22.178Z,14.06
2023-04-11T12:12:16.006Z,14.15
2023-04-11T12:17:09.621Z,14.14
2023-04-11T12:22:01.916Z,14.02
2023-04-11T12:27:06.269Z,13.82
2023-04-11T12:31:58.930Z,13.56
2023-04-11T12:36:50.526Z,13.32
2023-04-11T12:41:42.199Z,13.19
2023-04-11T12:46:34.037Z,13.12
2023-04-11T12:51:25.728Z,12.90
2023-04-11T12:56:27.017Z,12.81
2023-04-11T13:01:18.780Z,12.70
2023-04-11T13:06:10.887Z,12.44
2023-04-11T13:11:02.784Z,12.15
2023-04-11T13:15:54.437Z,11.77
2023-04-11T13:20:46.400Z,11.53
2023-04-11T13:25:37.989Z,11.38
2023-04-11T13:30:29.741Z,11.38
2023-04-11T13:35:21.440Z,11.39
2023-04-11T13:40:13.300Z,11.51
2023-04-11T13:45:05.266Z,11.39
2023-04-11T13:49:56.941Z,11.15
2023-04-11T13:54:48.532Z,11.08
2023-04-11T13:59:40.215Z,11.01
2023-04-11T14:04:32.036Z,10.98
2023-04-11T14:09:23.802Z,10.89
2023-04-11T14:14:15.824Z,10.78
2023-04-11T14:19:07.458Z,10.74
2023-04-11T14:23:59.396Z,10.55
2023-04-11T14:28:51.599Z,10.46
2023-04-11T14:33:43.286Z,10.47
2023-04-11T14:38:34.946Z,10.41
2023-04-11T14:43:26.718Z,10.34
2023-04-11T14:48:18.360Z,10.25
2023-04-11T14:53:10.163Z,10.25
2023-04-11T14:58:01.865Z,10.12
2023-04-11T15:02:55.086Z,10.03
2023-04-11T15:07:48.766Z,9.99
2023-04-11T15:12:40.755Z,9.91
2023-04-11T15:17:38.747Z,9.86
2023-04-11T15:22:30.625Z,9.80
2023-04-11T15:27:22.265Z,9.67
2023-04-11T15:32:14.233Z,9.57
2023-04-11T15:37:13.237Z,9.46
2023-04-11T15:42:05.138Z,9.38
2023-04-11T15:46:56.789Z,9.32
2023-04-11T15:51:48.506Z,9.23
2023-04-11T15:56:40.175Z,9.21
2023-04-11T16:01:32.651Z,9.16
2023-04-11T16:06:24.308Z,9.14
2023-04-11T16:11:15.998Z,9.09
2023-04-11T16:16:10.577Z,9.08
2023-04-11T16:21:02.471Z,8.99
2023-04-11T16:25:54.132Z,8.94
2023-04-11T16:30:45.819Z,8.92
2023-04-11T16:35:37.710Z,8.91
2023-04-11T16:40:31.856Z,8.82
2023-04-11T16:45:24.230Z,8.72
2023-04-11T16:50:16.012Z,8.63
2023-04-11T16:55:08.043Z,8.55
2023-04-11T16:59:59.657Z,8.46
2023-04-11T17:04:51.399Z,8.39
2023-04-11T17:09:43.050Z,8.34
2023-04-11T17:14:35.736Z,8.29
2023-04-11T17:19:27.444Z,8.22
2023-04-11T17:24:19.104Z,8.15
2023-04-11T17:29:11.103Z,8.09
2023-04-11T17:34:03.537Z,8.02
2023-04-11T17:38:55.425Z,7.98
2023-04-11T17:43:47.200Z,7.91
2023-04-11T17:48:38.909Z,7.87
2023-04-11T17:53:30.968Z,7.81
2023-04-11T17:58:22.957Z,7.77
2023-04-11T18:03:15.170Z,7.70
2023-04-11T18:08:07.892Z,7.65
2023-04-11T18:12:59.641Z,7.59
2023-04-11T18:17:52.182Z,7.59
2023-04-11T18:22:56.361Z,7.60
2023-04-11T18:27:48.239Z,7.56
2023-04-11T18:32:45.060Z,7.53
2023-04-11T18:37:43.878Z,7.51
2023-04-11T18:42:35.637Z,7.47
2023-04-11T18:47:27.425Z,7.39
2023-04-11T18:52:19.082Z,7.41
2023-04-11T18:57:12.732Z,7.42
2023-04-11T19:02:05.825Z,7.45
2023-04-11T19:06:57.727Z,7.49
2023-04-11T19:11:49.345Z,7.50
2023-04-11T19:16:44.238Z,7.55
2023-04-11T19:21:36.150Z,7.60
2023-04-11T19:26:28.495Z,7.62
2023-04-11T19:31:20.210Z,7.68
2023-04-11T19:36:12.120Z,7.79
2023-04-11T19:41:14.985Z,7.90
2023-04-11T19:46:09.552Z,7.95
2023-04-11T19:51:02.825Z,8.05
2023-04-11T19:55:55.405Z,8.12
2023-04-11T20:00:47.834Z,8.21
2023-04-11T20:05:40.382Z,8.30
2023-04-11T20:10:32.251Z,8.37
2023-04-11T20:15:24.050Z,8.37
2023-04-11T20:20:17.020Z,8.35
2023-04-11T20:25:11.554Z,8.29
2023-04-11T20:30:08.217Z,8.21
2023-04-11T20:35:01.950Z,8.14
2023-04-11T20:39:53.778Z,8.10
2023-04-11T20:44:45.427Z,7.96
2023-04-11T20:49:37.032Z,7.94
2023-04-11T20:54:28.863Z,7.88
2023-04-11T20:59:20.459Z,7.87
2023-04-11T21:04:13.170Z,7.82
2023-04-11T21:09:05.698Z,7.77
2023-04-11T21:13:57.573Z,7.75
2023-04-11T21:18:49.410Z,7.76
2023-04-11T21:23:41.074Z,7.67
2023-04-11T21:28:32.735Z,7.52
2023-04-11T21:33:24.402Z,7.48
2023-04-11T21:38:16.071Z,7.41
2023-04-11T21:43:07.749Z,7.29
2023-04-11T21:47:59.344Z,7.10
2023-04-11T21:52:53.175Z,6.93
2023-04-11T21:57:44.866Z,6.76
2023-04-11T22:02:37.318Z,6.59
2023-04-11T22:07:33.605Z,6.51
2023-04-11T22:12:27.102Z,6.41
2023-04-11T22:17:22.679Z,6.27
2023-04-11T22:22:14.396Z,6.09
2023-04-11T22:27:10.534Z,5.97
2023-04-11T22:32:04.049Z,5.90
2023-04-11T22:36:57.781Z,5.87
2023-04-11T22:41:51.896Z,5.80
2023-04-11T22:46:57.423Z,5.71
2023-04-11T22:51:49.679Z,5.65
2023-04-11T22:56:41.774Z,5.57
2023-04-11T23:01:33.593Z,5.51
2023-04-11T23:06:25.416Z,5.40
2023-04-11T23:11:17.245Z,5.43
2023-04-11T23:16:09.355Z,5.38
2023-04-11T23:21:02.004Z,5.32
2023-04-11T23:25:54.388Z,5.29
2023-04-11T23:30:46.189Z,5.25
2023-04-11T23:35:38.080Z,5.19
2023-04-11T23:40:30.630Z,5.18
2023-04-11T23:45:23.003Z,5.12
2023-04-11T23:50:14.905Z,5.10
2023-04-11T23:55:07.700Z,5.08
2023-04-11T23:59:59.383Z,5.02
